Flight Track Log - Related Links

Times and Time Zones

All times are in EDT time to prevent confusion due to time zone crossing. See the ASQ5678 flight status page for this flight to view local times or setup timezone preferences in your user account.

Time Position Orientation Groundspeed Altitude Reporting Facility
EDT Latitude Longitude Course Direction KTS MPH feet Rate Location/Type
Thu 08:48:34 AM 42.9667 -87.8833 185° South 143 165 1,500  Level KMKE
Thu 08:49:23 AM 43.0000 -87.9000 340° North 185 213 2,600 1,651 Climbing KMKE
Thu 08:50:23 AM 43.0000 -87.9667 270° West 242 278 4,500 2,333 Climbing KMKE
Thu 08:52:00 AM 42.5737 -88.1562 180° South  Level Estimated
Thu 08:52:05 AM 42.8958 -88.0200 201° Southwest 244 281 8,900  Level Chicago Center
Thu 08:53:00 AM 42.4804 -88.2204 185° South  Level Estimated
Thu 08:53:06 AM 42.8242 -88.0189 179° South 261 300 11,300  Level Chicago Center
Thu 08:54:08 AM 42.7511 -88.0189 180° South 263 303 13,600 1,500 Climbing Chicago Center
Thu 08:55:10 AM 42.6708 -88.0136 177° South 292 336 14,400 823 Climbing Chicago Center
Thu 08:56:12 AM 42.5619 -88.0078 178° South 337 388 15,300 1,220 Climbing Chicago Center
Thu 08:57:13 AM 42.4639 -88.0100 181° South 351 404 16,900 1,366 Climbing Chicago Center
Thu 08:58:15 AM 42.3656 -88.0125 181° South 353 406 18,100 1,258 Climbing Chicago Center
Thu 08:59:17 AM 42.2697 -88.0147 181° South 357 411 19,500 1,268 Climbing Chicago Center
Thu 09:00:18 AM 42.1675 -88.0161 181° South 366 421 20,700 1,171 Climbing Chicago Center
Thu 09:01:20 AM 42.0628 -88.0192 181° South 377 434 21,900 1,210 Climbing Chicago Center
Thu 09:02:22 AM 41.9344 -88.0219 181° South 386 444 23,200 1,122 Climbing Chicago Center
Thu 09:03:23 AM 41.8253 -88.0331 184° South 394 453 24,200 1,024 Climbing Chicago Center
Thu 09:04:25 AM 41.7153 -88.0442 184° South 398 458 25,300 1,016 Climbing Chicago Center
Thu 09:05:27 AM 41.6050 -88.0561 185° South 400 460 26,300 1,016 Climbing Chicago Center
Thu 09:06:29 AM 41.4867 -88.0692 185° South 402 463 27,400 1,073 Climbing Chicago Center
Thu 09:07:30 AM 41.3744 -88.0814 185° South 404 465 28,500 1,024 Climbing Chicago Center
Thu 09:08:32 AM 41.2608 -88.0931 184° South 401 461 29,500 1,016 Climbing Chicago Center
Thu 09:09:34 AM 41.1533 -88.1044 185° South 392 451 30,600 1,024 Climbing Chicago Center
Thu 09:10:35 AM 41.0442 -88.1164 185° South 394 453 31,600 1,220 Climbing Chicago Center
Thu 09:11:37 AM 40.9153 -88.1392 188° South 395 455 33,100 1,403 Climbing Chicago Center
Thu 09:12:39 AM 40.8206 -88.2033 207° Southwest 387 445 34,500 1,210 Climbing Chicago Center
Thu 09:13:41 AM 40.7308 -88.2683 209° Southwest 373 429 35,600 732 Climbing Chicago Center
Thu 09:14:42 AM 40.6422 -88.3300 208° Southwest 364 419 36,000 195 Climbing Chicago Center
Thu 09:15:44 AM 40.5489 -88.3961 208° Southwest 375 432 36,000  Level Chicago Center
Thu 09:16:46 AM 40.4528 -88.4653 209° Southwest 388 447 36,000  Level Chicago Center
Thu 09:17:48 AM 40.3475 -88.5392 208° Southwest 410 472 36,000  Level Chicago Center
Thu 09:18:49 AM 40.2431 -88.6108 208° Southwest 419 482 36,000  Level Chicago Center
Thu 09:19:51 AM 40.1361 -88.6867 208° Southwest 430 495 36,000  Level Chicago Center
Thu 09:20:21 AM 40.0708 -88.7300 207° Southwest 427 491 36,000  Level Kansas City Center
Thu 09:21:22 AM 39.9658 -88.8031 208° Southwest 428 493 36,000  Level Kansas City Center
Thu 09:22:24 AM 39.8611 -88.8747 208° Southwest 426 490 36,000  Level Kansas City Center
Thu 09:23:25 AM 39.7558 -88.9486 208° Southwest 427 491 36,000  Level Kansas City Center
Thu 09:24:27 AM 39.6500 -89.0217 208° Southwest 428 493 36,000  Level Kansas City Center
Thu 09:25:28 AM 39.5450 -89.0922 207° Southwest 426 490 36,000  Level Kansas City Center
Thu 09:26:29 AM 39.4206 -89.1778 208° Southwest 426 490 36,000  Level Kansas City Center
Thu 09:27:31 AM 39.3161 -89.2481 208° Southwest 425 489 36,000  Level Kansas City Center
Thu 09:28:32 AM 39.2114 -89.3189 208° Southwest 425 489 36,000  Level Kansas City Center
Thu 09:29:34 AM 39.1019 -89.3942 208° Southwest 421 484 36,000  Level Kansas City Center
Thu 09:30:35 AM 38.9964 -89.4644 207° Southwest 426 490 36,000  Level Kansas City Center
Thu 09:31:37 AM 38.8842 -89.5397 208° Southwest 424 488 36,000  Level Kansas City Center
Thu 09:32:38 AM 38.7786 -89.6100 207° Southwest 427 491 36,000  Level Kansas City Center
Thu 09:33:39 AM 38.6861 -89.6719 208° Southwest 426 490 36,000  Level Kansas City Center
Thu 09:34:41 AM 38.5789 -89.7431 207° Southwest 430 495 36,000  Level Kansas City Center
Thu 09:35:42 AM 38.4722 -89.8133 207° Southwest 430 495 36,000  Level Kansas City Center
Thu 09:36:44 AM 38.3439 -89.8978 207° Southwest 429 494 36,000  Level Kansas City Center
Thu 09:37:45 AM 38.2364 -89.9678 207° Southwest 430 495 36,000  Level Kansas City Center
Thu 09:38:47 AM 38.1286 -90.0381 207° Southwest 432 497 36,000  Level Kansas City Center
Thu 09:39:48 AM 38.0222 -90.1083 207° Southwest 431 496 36,000  Level Kansas City Center
Thu 09:40:50 AM 37.9142 -90.1781 207° Southwest 434 499 36,000  Level Kansas City Center
Thu 09:41:51 AM 37.8072 -90.2494 208° Southwest 434 499 36,000  Level Kansas City Center
Thu 09:42:53 AM 37.6992 -90.3186 207° Southwest 435 501 36,000  Level Kansas City Center
Thu 09:43:54 AM 37.5908 -90.3889 207° Southwest 436 502 36,000  Level Kansas City Center
Thu 09:44:56 AM 37.4825 -90.4581 207° Southwest 437 503 36,000  Level Kansas City Center
Thu 09:46:08 AM 37.3422 -90.5472 207° Southwest 441 507 36,000  Level Memphis Center
Thu 09:47:08 AM 37.2214 -90.6278 208° Southwest 447 514 36,000  Level Memphis Center
Thu 09:48:08 AM 37.1106 -90.6978 207° Southwest 452 520 36,000  Level Memphis Center
Thu 09:49:08 AM 37.0000 -90.7672 207° Southwest 452 520 36,000  Level Memphis Center
Thu 09:50:08 AM 36.8894 -90.8367 207° Southwest 452 520 36,000  Level Memphis Center
Thu 09:51:08 AM 36.7808 -90.9061 207° Southwest 452 520 36,000  Level Memphis Center
Thu 09:52:08 AM 36.6678 -90.9725 205° Southwest 452 520 36,000  Level Memphis Center
Thu 09:53:08 AM 36.5569 -91.0414 207° Southwest 452 520 36,000  Level Memphis Center
Thu 09:54:08 AM 36.4503 -91.1103 207° Southwest 452 520 36,000  Level Memphis Center
Thu 09:55:08 AM 36.3353 -91.1814 206° Southwest 452 520 36,000  Level Memphis Center
Thu 09:56:08 AM 36.2242 -91.2497 206° Southwest 452 520 36,000  Level Memphis Center
Thu 09:57:08 AM 36.1111 -91.3178 206° Southwest 452 520 36,000  Level Memphis Center
Thu 09:58:08 AM 35.9981 -91.3833 205° Southwest 457 526 36,000  Level Memphis Center
Thu 09:59:08 AM 35.8911 -91.4561 209° Southwest 448 516 36,000  Level Memphis Center
Thu 10:00:08 AM 35.7778 -91.5239 206° Southwest 448 516 36,000  Level Memphis Center
Thu 10:01:08 AM 35.6667 -91.5914 206° Southwest 454 522 36,000  Level Memphis Center
Thu 10:02:08 AM 35.5514 -91.6611 206° Southwest 454 522 36,000  Level Memphis Center
Thu 10:03:08 AM 35.4525 -91.7206 206° Southwest 454 522 36,000  Level Memphis Center
Thu 10:04:08 AM 35.3372 -91.7900 206° Southwest 460 529 36,000  Level Memphis Center
Thu 10:05:08 AM 35.2236 -91.8567 206° Southwest 455 524 36,000  Level Memphis Center
Thu 10:06:08 AM 35.1122 -91.9258 207° Southwest 460 529 36,000  Level Memphis Center
Thu 10:07:08 AM 34.9989 -91.9922 206° Southwest 452 520 36,000  Level Memphis Center
Thu 10:08:08 AM 34.8831 -92.0608 206° Southwest 458 527 36,000  Level Memphis Center
Thu 10:09:08 AM 34.7611 -92.1392 208° Southwest 453 521 36,000  Level Memphis Center
Thu 10:10:08 AM 34.6456 -92.1950 202° Southwest 458 527 36,000  Level Memphis Center
Thu 10:11:08 AM 34.5158 -92.2172 188° South 453 521 36,000  Level Memphis Center
Thu 10:12:08 AM 34.3881 -92.2397 188° South 458 527 36,000  Level Memphis Center
Thu 10:13:08 AM 34.2667 -92.2622 189° South 458 527 36,000 -750 Level Memphis Center
Thu 10:14:08 AM 34.1411 -92.2869 189° South 458 527 34,500 -736 Descending Memphis Center
Thu 10:15:51 AM 33.9406 -92.3189 188° South 452 520 34,000 -184 Descending Fort Worth Center
Thu 10:16:51 AM 33.8142 -92.3414 188° South 446 513 34,000  Level Fort Worth Center
Thu 10:17:51 AM 33.6964 -92.3656 190° South 446 513 34,000  Level Fort Worth Center
Thu 10:18:51 AM 33.5719 -92.3878 188° South 446 513 34,000 -700 Level Fort Worth Center
Thu 10:19:51 AM 33.4497 -92.4122 189° South 446 513 32,600 -1,000 Descending Fort Worth Center
Thu 10:20:51 AM 33.3253 -92.4317 187° South 452 520 32,000 -300 Descending Fort Worth Center
Thu 10:21:51 AM 33.2011 -92.4558 189° South 458 527 32,000  Level Fort Worth Center
Thu 10:22:51 AM 33.0744 -92.4753 187° South 458 527 32,000  Level Fort Worth Center
Thu 10:23:51 AM 32.9544 -92.4969 189° South 458 527 32,000  Level Fort Worth Center
Thu 10:24:51 AM 32.8342 -92.5208 189° South 452 520 32,000  Level Fort Worth Center
Thu 10:25:51 AM 32.7100 -92.5425 188° South 446 513 32,000  Level Fort Worth Center
Thu 10:27:29 AM 32.5036 -92.5778 188° South 460 529 32,000  Level Houston Center
Thu 10:28:31 AM 32.3792 -92.6022 189° South 457 526 32,000  Level Houston Center
Thu 10:29:33 AM 32.2525 -92.6261 189° South 459 528 32,000 -48 Level Houston Center
Thu 10:30:35 AM 32.1228 -92.6483 188° South 466 536 31,900  Descending Houston Center
Thu 10:31:37 AM 31.9703 -92.6869 192° South 476 548 32,000  Climbing Houston Center
Thu 10:32:39 AM 31.8669 -92.7772 217° Southwest 466 536 31,900 -532 Descending Houston Center
Thu 10:33:41 AM 31.7686 -92.8775 221° Southwest 468 539 30,900 -1,065 Descending Houston Center
Thu 10:34:43 AM 31.6700 -92.9711 219° Southwest 459 528 29,700 -1,113 Descending Houston Center
Thu 10:35:45 AM 31.5719 -93.0650 219° Southwest 455 524 28,600 -823 Descending Houston Center
Thu 10:36:47 AM 31.4719 -93.1614 219° Southwest 463 533 28,000 -290 Descending Houston Center
Thu 10:37:49 AM 31.3511 -93.2739 218° Southwest 464 534 28,000 -339 Level Houston Center
Thu 10:38:51 AM 31.2533 -93.3711 220° Southwest 462 532 27,300 -919 Descending Houston Center
Thu 10:39:53 AM 31.1556 -93.4622 219° Southwest 454 522 26,100 -1,161 Descending Houston Center
Thu 10:40:55 AM 31.0569 -93.5561 219° Southwest 459 528 24,900 -1,113 Descending Houston Center
Thu 10:41:57 AM 30.9569 -93.6517 219° Southwest 465 535 23,800 -1,210 Descending Houston Center
Thu 10:42:59 AM 30.8414 -93.7603 219° Southwest 453 521 22,400 -1,355 Descending Houston Center
Thu 10:44:01 AM 30.7483 -93.8483 219° Southwest 439 505 21,000 -1,403 Descending Houston Center
Thu 10:45:03 AM 30.6553 -93.9358 219° Southwest 434 499 19,500 -1,415 Descending Houston Center
Thu 10:46:04 AM 30.5633 -94.0228 219° Southwest 431 496 18,100 -1,415 Descending Houston Center
Thu 10:47:06 AM 30.4717 -94.1078 219° Southwest 427 491 16,600 -1,627 Descending Houston Center
Thu 10:48:02 AM 30.3731 -94.1986 218° Southwest 400 460 14,900 -1,742 Descending Houston Center
Thu 10:49:10 AM 30.2875 -94.2792 219° Southwest 385 443 13,000 -1,385 Descending Houston Center
Thu 10:50:12 AM 30.2119 -94.3503 219° Southwest 361 415 11,900 -1,063 Descending Houston Center
Thu 10:50:29 AM 30.1917 -94.3822 234° Southwest 328 377 11,600 -968 Descending Houston Center
Thu 10:51:14 AM 30.1706 -94.4403 247° West 325 374 10,900 -885 Descending Houston Center
Thu 10:51:30 AM 30.1550 -94.4789 245° Southwest 316 364 10,700 -968 Descending Houston Center
Thu 10:52:16 AM 30.1339 -94.5400 248° West 313 360 9,900 -1,082 Descending Houston Center
Thu 10:52:31 AM 30.1233 -94.5653 244° Southwest 292 336 9,600 -1,082 Descending Houston Center
Thu 10:53:17 AM 30.1017 -94.6242 247° West 294 338 8,800 -968 Descending Houston Center
Thu 10:53:33 AM 30.0897 -94.6517 243° Southwest 281 323 8,600 -968 Descending Houston Center
Thu 10:54:19 AM 30.0722 -94.7058 250° West 281 323 7,800 -984 Descending Houston Center
Thu 10:54:34 AM 30.0600 -94.7353 244° Southwest 278 320 7,600 -871 Descending Houston Center
Thu 10:55:21 AM 30.0422 -94.7881 249° West 280 322 6,900 -881 Descending Houston Center
Thu 10:56:23 AM 30.0125 -94.8686 247° West 276 318 6,000 -435 Descending Houston Center
Thu 10:57:25 AM 29.9922 -94.9553 255° West 227 261 6,000  Level Houston Center
Thu 10:57:43 AM 29.9925 -94.9756 271° West 198 228 6,000 -689 Level Houston Center
Thu 10:58:26 AM 29.9939 -95.0208 272° West 206 237 5,300 -1,086 Descending Houston Center
Thu 10:59:28 AM 29.9942 -95.0867 270° West 206 237 4,100 -1,065 Descending Houston Center
Thu 11:00:30 AM 29.9942 -95.1447 270° West 188 216 3,100 -976 Descending Houston Center
Thu 11:01:31 AM 29.9933 -95.2019 269° West 183 211 2,100 -984 Descending Houston Center

Login

Don't have an account? Register now (free) for customized features, flight alerts, and more!